Time;durP1;ratioP1;P1;durP2;ratioP2;P2;SDS_P1;SDS_P2;PMS_P1;PMS_P2;Temp;Humidity;BMP_temperature;BMP_pressure;BME280_temperature;BME280_humidity;BME280_pressure;Samples;Min_cycle;Max_cycle;Signal;HPM_P1;HPM_P2
2023/02/17 08:37:09;;;;;;;7.63;5.80;;;;;;;12.16;74.99;100046.50;6223942;22;20180;-83
2023/02/17 12:36:53;;;;;;;1.50;0.90;;;;;;;16.18;74.16;99850.44;6210787;22;20218;-87
2023/02/17 12:39:23;;;;;;;2.00;0.80;;;;;;;16.46;73.90;99845.91;6270344;22;20240;-88
2023/02/17 12:45:15;;;;;;;3.30;1.00;;;;;;;16.58;73.24;99854.72;6261496;22;20237;-88
2023/02/17 12:54:00;;;;;;;1.80;1.00;;;;;;;16.78;72.62;99852.25;6276111;22;20269;-92
2023/02/17 12:57:02;;;;;;;1.60;0.90;;;;;;;16.77;72.92;99857.91;6199576;22;20208;-89
2023/02/17 12:59:29;;;;;;;2.17;1.80;;;;;;;16.82;72.21;99855.25;6250425;22;20207;-91
2023/02/17 13:02:04;;;;;;;3.17;1.20;;;;;;;16.86;72.16;99848.25;6249046;22;20210;-91
2023/02/17 13:04:32;;;;;;;2.00;0.90;;;;;;;16.77;72.35;99839.78;6275290;22;20238;-91
2023/02/17 13:07:14;;;;;;;2.70;1.13;;;;;;;16.68;72.75;99831.31;6198643;22;20279;-91
2023/02/17 13:09:43;;;;;;;2.60;1.00;;;;;;;16.63;73.27;99819.59;6276300;22;20208;-91
2023/02/17 13:12:22;;;;;;;2.73;1.30;;;;;;;16.55;73.15;99837.09;6222731;22;20215;-91
2023/02/17 13:14:54;;;;;;;1.13;0.77;;;;;;;16.56;73.70;99824.38;6249722;22;20222;-91
2023/02/17 13:17:23;;;;;;;2.33;0.90;;;;;;;16.54;73.28;99827.31;6249365;22;20219;-91
2023/02/17 13:20:20;;;;;;;3.70;1.53;;;;;;;16.70;73.30;99812.91;6276283;22;20204;-91
2023/02/17 13:22:47;;;;;;;5.67;1.40;;;;;;;16.68;73.53;99809.66;6223710;22;20228;-91
2023/02/17 13:25:28;;;;;;;2.40;1.03;;;;;;;16.79;73.50;99809.78;6223952;22;20291;-90
2023/02/17 13:27:57;;;;;;;1.20;0.80;;;;;;;16.85;73.18;99796.00;6223092;22;20212;-91
2023/02/17 13:30:37;;;;;;;1.67;0.80;;;;;;;16.95;72.81;99801.53;6223037;22;20203;-92
2023/02/17 13:33:27;;;;;;;2.50;1.07;;;;;;;16.98;72.57;99795.59;6249611;22;20266;-91
2023/02/17 13:35:54;;;;;;;3.83;1.87;;;;;;;17.03;72.15;99800.25;6224130;22;20287;-90
2023/02/17 13:38:29;;;;;;;3.93;1.97;;;;;;;17.06;72.32;99797.03;6198847;22;20279;-91
2023/02/17 13:40:59;;;;;;;3.17;1.97;;;;;;;17.05;72.36;99809.75;6198389;22;20207;-90
2023/02/17 13:43:29;;;;;;;3.00;1.93;;;;;;;17.05;72.71;99815.16;6198494;22;20208;-91
2023/02/17 13:46:02;;;;;;;17.67;16.07;;;;;;;17.08;72.69;99803.81;6198737;22;20204;-91
2023/02/17 13:48:33;;;;;;;32.17;28.93;;;;;;;17.10;72.44;99803.56;6223538;22;20230;-91
2023/02/17 13:51:05;;;;;;;28.93;26.03;;;;;;;17.10;72.83;99804.38;6223982;22;20279;-90
2023/02/17 13:53:37;;;;;;;8.30;4.33;;;;;;;16.99;73.13;99796.41;6223816;22;20226;-91
2023/02/17 13:56:09;;;;;;;5.10;3.20;;;;;;;16.90;73.02;99800.66;6228480;22;20203;-91
2023/02/17 13:58:38;;;;;;;2.53;1.80;;;;;;;16.54;73.59;99804.88;6229614;22;20211;-91
2023/02/17 14:01:11;;;;;;;30.43;13.27;;;;;;;16.44;74.42;99804.75;6278238;22;20674;-90
2023/02/17 14:03:38;;;;;;;26.87;11.17;;;;;;;16.62;74.48;99801.72;6253021;22;20224;-91
2023/02/17 14:06:06;;;;;;;37.07;20.57;;;;;;;16.63;75.64;99804.19;6252337;22;20294;-91
2023/02/17 14:08:38;;;;;;;24.67;13.50;;;;;;;16.57;75.96;99804.34;6228886;22;20648;-91
2023/02/17 14:11:11;;;;;;;13.57;6.60;;;;;;;16.55;76.25;99806.50;6254556;22;20719;-90
2023/02/17 14:13:41;;;;;;;4.23;2.77;;;;;;;16.50;76.25;99790.22;6254458;22;20238;-91
2023/02/17 14:16:26;;;;;;;5.73;3.20;;;;;;;16.42;76.38;99791.50;6252629;22;20213;-91
2023/02/17 14:19:07;;;;;;;4.60;2.93;;;;;;;16.33;76.95;99787.59;6223803;22;20215;-89
2023/02/17 14:21:39;;;;;;;4.07;2.20;;;;;;;16.23;77.29;99796.44;6254150;22;20210;-92
2023/02/17 14:24:06;;;;;;;3.47;2.50;;;;;;;16.15;77.92;99796.84;6254140;22;20211;-91
2023/02/17 14:26:43;;;;;;;4.97;2.33;;;;;;;16.08;78.15;99787.31;6255840;22;20207;-91
2023/02/17 14:29:12;;;;;;;3.10;1.90;;;;;;;15.90;78.60;99799.25;6229209;22;20215;-91
2023/02/17 14:31:50;;;;;;;2.47;1.70;;;;;;;15.87;78.61;99788.91;6253679;22;20200;-91
2023/02/17 14:34:19;;;;;;;2.97;1.77;;;;;;;15.83;79.04;99776.97;6229374;22;20214;-91
2023/02/17 14:36:46;;;;;;;2.70;1.73;;;;;;;15.76;79.53;99777.19;6279778;22;20282;-89
2023/02/17 14:39:14;;;;;;;2.43;1.40;;;;;;;15.80;79.50;99766.69;6279600;22;20208;-89
2023/02/17 14:41:41;;;;;;;1.73;0.80;;;;;;;15.82;79.69;99761.84;6280484;22;20660;-89
2023/02/17 14:50:31;;;;;;;1.57;0.80;;;;;;;15.80;79.78;99743.19;6246231;22;20290;-86
2023/02/17 14:52:58;;;;;;;1.33;0.80;;;;;;;15.80;79.75;99747.78;6277398;22;20215;-89
2023/02/17 14:55:32;;;;;;;1.10;0.90;;;;;;;15.80;80.03;99743.19;6248579;22;20742;-90
2023/02/17 14:58:00;;;;;;;1.77;0.70;;;;;;;15.82;79.91;99742.91;6223601;22;20211;-89
2023/02/17 15:00:26;;;;;;;1.33;0.80;;;;;;;15.81;79.46;99725.09;6222736;22;20238;-89
2023/02/17 15:02:53;;;;;;;2.30;0.80;;;;;;;15.83;79.65;99731.06;6223659;22;20219;-89
2023/02/17 15:05:20;;;;;;;2.67;1.10;;;;;;;15.88;79.70;99727.59;6249786;22;20212;-89
2023/02/17 15:07:47;;;;;;;22.10;11.30;;;;;;;15.84;79.66;99725.41;6275281;22;20214;-89
2023/02/17 15:10:26;;;;;;;3.37;2.07;;;;;;;15.88;79.76;99736.53;6255797;22;20207;-89
2023/02/17 15:13:18;;;;;;;3.03;1.00;;;;;;;15.76;79.30;99738.53;6258575;22;20211;-87
2023/02/17 15:15:46;;;;;;;1.70;0.70;;;;;;;15.74;79.10;99736.09;6254987;22;20243;-88
2023/02/17 15:18:15;;;;;;;2.50;0.97;;;;;;;15.76;79.08;99736.66;6232653;22;20207;-90
2023/02/17 15:20:44;;;;;;;1.03;0.63;;;;;;;15.71;78.72;99733.88;6250970;22;20201;-90
2023/02/17 15:26:02;;;;;;;1.63;0.90;;;;;;;15.75;77.38;99710.72;6255043;22;20198;-83
2023/02/17 15:28:29;;;;;;;1.77;0.87;;;;;;;15.79;77.28;99709.13;6280144;22;20203;-88
2023/02/17 15:30:56;;;;;;;2.03;0.93;;;;;;;15.87;76.71;99715.97;6274879;22;20666;-88
2023/02/17 15:33:23;;;;;;;1.57;0.90;;;;;;;15.90;76.43;99707.38;6226635;22;20672;-90
2023/02/17 15:35:52;;;;;;;1.73;0.93;;;;;;;15.83;76.38;99704.03;6200815;22;20208;-90
2023/02/17 15:38:31;;;;;;;3.50;0.90;;;;;;;15.96;76.02;99700.16;6255046;22;20200;-88
2023/02/17 15:41:23;;;;;;;1.20;0.80;;;;;;;15.90;76.14;99701.16;6297927;22;20214;-88
2023/02/17 15:43:51;;;;;;;2.83;1.10;;;;;;;15.84;76.48;99689.47;6281298;22;20203;-91
2023/02/17 15:46:19;;;;;;;2.17;0.70;;;;;;;15.89;76.13;99691.41;6280628;22;20285;-88
2023/02/17 15:51:45;;;;;;;1.97;0.90;;;;;;;15.93;76.12;99677.16;6296730;22;20286;-86
2023/02/17 15:54:12;;;;;;;2.23;1.00;;;;;;;16.00;75.95;99687.78;6325288;22;20672;-88
2023/02/17 15:56:44;;;;;;;2.17;1.20;;;;;;;15.84;76.04;99674.09;6318471;22;20249;-86
2023/02/17 16:46:05;;;;;;;1.10;0.70;;;;;;;16.15;75.35;99641.97;6242773;22;20208;-87
2023/02/17 17:23:19;;;;;;;1.40;1.03;;;;;;;16.21;75.41;99630.97;6252317;22;20215;-85
2023/02/17 17:25:47;;;;;;;2.63;1.00;;;;;;;16.06;75.87;99624.56;6275104;22;20220;-86
2023/02/17 17:31:11;;;;;;;1.73;0.90;;;;;;;15.94;76.48;99632.03;6297863;22;20210;-87
2023/02/17 17:33:38;;;;;;;2.17;0.93;;;;;;;15.93;76.56;99622.28;6314585;22;20211;-86
2023/02/17 17:39:22;;;;;;;1.10;1.00;;;;;;;15.93;76.80;99630.41;6233631;22;20206;-87
2023/02/17 17:41:49;;;;;;;2.47;1.10;;;;;;;15.92;76.92;99620.66;6265099;22;20205;-88
2023/02/17 17:44:17;;;;;;;3.33;2.20;;;;;;;15.98;77.19;99628.56;6255839;22;20273;-89
2023/02/17 17:46:44;;;;;;;3.63;1.47;;;;;;;15.95;77.30;99623.69;6255431;22;20214;-90
2023/02/17 17:55:09;;;;;;;1.43;0.80;;;;;;;16.02;77.67;99634.28;6280825;22;20217;-86
2023/02/17 17:57:38;;;;;;;1.00;0.80;;;;;;;16.06;77.57;99635.38;6309245;22;20205;-87
2023/02/17 18:55:45;;;;;;;1.40;0.80;;;;;;;15.93;83.71;99603.38;6294702;22;20202;-81
2023/02/17 18:58:22;;;;;;;3.00;0.70;;;;;;;16.12;83.39;99610.06;6316751;22;20213;-79
2023/02/17 19:00:49;;;;;;;1.00;0.90;;;;;;;15.98;83.50;99598.84;6294497;22;20264;-82
2023/02/17 19:06:20;;;;;;;2.07;0.90;;;;;;;16.02;84.14;99607.25;6310507;22;20210;-80
2023/02/17 19:08:47;;;;;;;1.13;0.80;;;;;;;15.98;84.30;99598.84;6278337;22;20354;-81
2023/02/17 19:11:15;;;;;;;0.90;0.70;;;;;;;15.84;84.69;99584.94;6322463;22;20261;-80
2023/02/17 19:13:45;;;;;;;1.00;0.83;;;;;;;15.90;84.95;99585.81;6290084;22;20979;-80
2023/02/17 19:16:16;;;;;;;1.07;0.83;;;;;;;15.98;85.01;99582.63;6319233;22;20206;-81
2023/02/17 19:18:44;;;;;;;1.67;0.73;;;;;;;16.02;85.17;99577.53;6271507;22;20211;-81
2023/02/17 19:21:15;;;;;;;1.67;0.70;;;;;;;15.92;85.43;99575.53;6279108;22;20207;-80
2023/02/17 19:23:43;;;;;;;1.70;0.70;;;;;;;15.88;85.91;99593.34;6290421;22;20219;-81
2023/02/17 19:26:11;;;;;;;1.30;0.70;;;;;;;15.78;86.34;99580.53;6310717;22;20727;-81
2023/02/17 19:28:39;;;;;;;0.67;0.60;;;;;;;15.73;86.72;99580.47;6279292;22;20207;-83
2023/02/17 19:31:08;;;;;;;1.00;0.70;;;;;;;15.73;86.87;99583.19;6282004;22;20761;-81
2023/02/17 19:33:35;;;;;;;0.83;0.60;;;;;;;15.71;87.07;99571.84;6264959;22;20689;-83
2023/02/17 19:36:09;;;;;;;0.63;0.63;;;;;;;15.68;87.33;99561.50;6278243;22;20253;-83
2023/02/17 19:38:36;;;;;;;1.07;0.63;;;;;;;15.80;87.06;99562.19;6303956;22;20211;-80
2023/02/17 19:41:06;;;;;;;0.90;0.60;;;;;;;15.84;87.20;99563.31;6332023;22;20200;-80
2023/02/17 19:43:33;;;;;;;2.37;0.77;;;;;;;15.71;87.33;99533.19;6308817;22;20193;-81
2023/02/17 19:46:00;;;;;;;0.80;0.50;;;;;;;15.84;87.03;99532.78;6334392;22;20250;-81
2023/02/17 19:48:27;;;;;;;2.07;0.60;;;;;;;15.89;86.93;99532.00;6307731;22;20249;-79
2023/02/17 19:51:01;;;;;;;0.60;0.50;;;;;;;15.90;87.01;99541.75;6326056;22;20268;-80
2023/02/17 19:53:30;;;;;;;1.13;0.63;;;;;;;15.86;86.82;99534.13;6308422;22;20201;-80
2023/02/17 19:56:14;;;;;;;0.80;0.60;;;;;;;15.97;86.68;99543.16;6280778;22;20185;-81
2023/02/17 19:58:45;;;;;;;0.60;0.43;;;;;;;15.97;86.72;99551.28;6314289;22;20270;-81
2023/02/17 20:01:17;;;;;;;0.60;0.50;;;;;;;15.97;86.47;99561.25;6301653;22;20219;-80
2023/02/17 20:03:49;;;;;;;0.93;0.50;;;;;;;16.06;86.05;99571.34;6336478;22;20654;-79
2023/02/17 20:06:20;;;;;;;0.50;0.47;;;;;;;16.13;85.58;99563.03;6334183;22;20255;-80
2023/02/17 20:09:01;;;;;;;1.33;0.70;;;;;;;16.03;86.13;99579.16;6290668;22;20288;-81
2023/02/17 20:11:29;;;;;;;0.50;0.50;;;;;;;16.01;85.68;99557.78;6333645;22;20251;-80
2023/02/17 20:14:10;;;;;;;0.60;0.50;;;;;;;15.98;85.79;99562.91;6319422;22;20232;-80
2023/02/17 20:17:02;;;;;;;0.73;0.60;;;;;;;16.20;85.41;99593.34;6307625;22;20232;-80
2023/02/17 20:19:34;;;;;;;1.27;0.53;;;;;;;16.24;85.02;99570.13;6320464;22;20207;-81
2023/02/17 20:22:05;;;;;;;0.83;0.50;;;;;;;16.29;85.01;99556.66;6328872;22;20203;-79
2023/02/17 20:24:34;;;;;;;1.80;0.40;;;;;;;16.17;85.25;99573.09;6293676;22;20218;-82
2023/02/17 20:27:01;;;;;;;0.40;0.40;;;;;;;16.23;85.00;99573.94;6297311;22;20205;-80
2023/02/17 20:29:28;;;;;;;0.50;0.50;;;;;;;16.14;85.69;99575.50;6317948;22;20285;-81
2023/02/17 20:31:54;;;;;;;0.97;0.60;;;;;;;16.13;85.56;99587.38;6282800;22;20259;-81
2023/02/17 20:34:37;;;;;;;0.57;0.57;;;;;;;16.13;85.35;99588.19;6288574;22;20212;-80
2023/02/17 20:37:06;;;;;;;1.00;0.47;;;;;;;16.20;85.49;99596.06;6265344;22;20208;-81
2023/02/17 20:39:34;;;;;;;0.73;0.57;;;;;;;16.04;85.80;99605.94;6288053;22;20678;-80
2023/02/17 20:42:02;;;;;;;0.53;0.50;;;;;;;16.14;85.45;99608.72;6297895;22;20213;-80
2023/02/17 20:44:28;;;;;;;0.73;0.33;;;;;;;16.14;85.54;99613.31;6289726;22;20229;-80
2023/02/17 20:46:56;;;;;;;0.50;0.40;;;;;;;16.01;86.14;99619.13;6256198;22;20203;-81
2023/02/17 20:49:23;;;;;;;0.40;0.30;;;;;;;16.17;85.65;99602.81;6280207;22;20219;-82
2023/02/17 20:51:58;;;;;;;0.30;0.30;;;;;;;16.19;85.58;99622.28;6273327;22;20203;-80
2023/02/17 20:54:25;;;;;;;0.83;0.60;;;;;;;16.28;85.39;99618.03;6301668;22;20212;-80
2023/02/17 20:56:52;;;;;;;0.50;0.40;;;;;;;16.35;85.33;99623.25;6332507;22;20217;-81
2023/02/17 20:59:19;;;;;;;0.83;0.50;;;;;;;16.42;85.09;99621.16;6333416;22;20207;-80
2023/02/17 21:01:46;;;;;;;0.97;0.30;;;;;;;16.31;85.28;99632.94;6332547;22;20255;-80
2023/02/17 21:04:12;;;;;;;1.03;0.40;;;;;;;16.32;84.95;99620.25;6335936;22;20197;-82
2023/02/17 21:15:59;;;;;;;1.53;0.33;;;;;;;16.36;85.18;99603.25;6317217;22;20237;-83
2023/02/17 21:18:37;;;;;;;1.80;0.50;;;;;;;16.51;84.82;99635.00;6292587;22;20209;-82
2023/02/17 21:21:04;;;;;;;0.50;0.50;;;;;;;16.50;84.87;99639.59;6309905;22;20177;-83
2023/02/17 21:23:38;;;;;;;2.03;0.53;;;;;;;16.45;84.97;99646.84;6308179;22;20250;-82
2023/02/17 21:26:07;;;;;;;0.47;0.30;;;;;;;16.45;85.15;99657.66;6333324;22;20258;-82
2023/02/17 21:28:51;;;;;;;1.67;0.37;;;;;;;16.63;84.13;99651.91;6312051;22;20152;-82
2023/02/17 21:31:18;;;;;;;0.60;0.50;;;;;;;16.45;84.69;99657.66;6300875;22;20231;-81
2023/02/17 21:33:50;;;;;;;0.40;0.40;;;;;;;16.55;84.47;99658.56;6305667;22;20181;-82
2023/02/17 21:36:17;;;;;;;0.80;0.50;;;;;;;16.56;84.36;99668.31;6333757;22;20247;-82
2023/02/17 21:38:44;;;;;;;0.40;0.40;;;;;;;16.48;84.79;99660.66;6300994;22;20213;-82
2023/02/17 21:41:22;;;;;;;1.17;0.40;;;;;;;16.43;84.78;99679.53;6306294;22;20221;-83
2023/02/17 21:55:18;;;;;;;0.90;0.50;;;;;;;16.56;84.65;99702.66;6196282;22;20208;-81
2023/02/17 23:03:17;;;;;;;1.63;0.60;;;;;;;15.95;85.88;99696.63;6287740;22;20653;-82
2023/02/17 23:05:45;;;;;;;1.67;0.70;;;;;;;15.79;86.36;99695.63;6263472;22;20217;-81
2023/02/17 23:08:12;;;;;;;1.37;0.60;;;;;;;15.77;86.60;99686.94;6306870;22;20221;-81
2023/02/17 23:10:40;;;;;;;1.33;0.70;;;;;;;15.86;86.18;99687.34;6306413;22;20785;-83
2023/02/17 23:13:07;;;;;;;1.07;0.70;;;;;;;15.85;86.22;99702.72;6311939;22;20288;-82
2023/02/17 23:15:38;;;;;;;1.10;0.70;;;;;;;15.71;86.44;99698.78;6319874;22;20650;-82
2023/02/17 23:18:10;;;;;;;0.77;0.63;;;;;;;15.74;86.51;99687.47;6322583;22;20222;-81
2023/02/17 23:20:39;;;;;;;1.07;0.60;;;;;;;15.81;86.34;99692.69;6291917;22;20281;-81
2023/02/17 23:23:06;;;;;;;1.83;0.70;;;;;;;15.93;86.10;99687.13;6320701;22;20230;-81
2023/02/17 23:25:33;;;;;;;0.70;0.50;;;;;;;15.83;86.12;99685.94;6320018;22;20206;-82
2023/02/17 23:28:01;;;;;;;1.00;0.70;;;;;;;15.66;87.06;99695.19;6280882;22;20205;-82
2023/02/17 23:30:28;;;;;;;0.60;0.60;;;;;;;15.59;87.13;99683.75;6310265;22;20230;-81
2023/02/17 23:32:54;;;;;;;0.57;0.57;;;;;;;15.69;86.96;99684.69;6314991;22;20289;-82
2023/02/17 23:35:21;;;;;;;0.70;0.67;;;;;;;15.86;86.51;99692.75;6319585;22;20548;-81
2023/02/17 23:37:49;;;;;;;0.77;0.60;;;;;;;15.84;86.36;99689.47;6319712;22;20540;-82
2023/02/17 23:40:17;;;;;;;1.37;0.60;;;;;;;15.86;86.51;99692.75;6288329;22;20200;-82
2023/02/17 23:42:44;;;;;;;1.07;0.70;;;;;;;15.66;87.05;99690.59;6314292;22;20212;-81
2023/02/17 23:45:11;;;;;;;0.67;0.60;;;;;;;15.64;86.90;99687.31;6322045;22;20373;-83
2023/02/17 23:47:44;;;;;;;2.47;0.70;;;;;;;15.76;86.48;99690.75;6286144;22;20210;-81
2023/02/17 23:50:10;;;;;;;0.97;0.80;;;;;;;15.79;86.34;99686.69;6318090;22;20205;-81
2023/02/17 23:52:37;;;;;;;1.10;0.70;;;;;;;15.92;86.05;99699.00;6319950;22;20203;-82
2023/02/17 23:55:04;;;;;;;0.50;0.50;;;;;;;15.93;85.83;99709.56;6319417;22;20204;-82
2023/02/17 23:57:38;;;;;;;0.60;0.60;;;;;;;15.83;85.67;99682.44;6319832;22;20663;-82
